Flight Track Log - Related Links

Times and Time Zones

All times are in EDT time to prevent confusion due to time zone crossing. See the SWA662 flight status page for this flight to view local times or setup timezone preferences in your user account.

Time Position Orientation Groundspeed Altitude Reporting Facility
EDT Latitude Longitude Course Direction KTS MPH feet Rate Location/Type
Tue 11:45:42 PM 33.9470 -118.4330 263° West 151 174 1,200  Level FlightAware ADS-B
Tue 11:46:07 PM 33.9450 -118.4560 264° West 183 211 2,000 1,800 Climbing FlightAware ADS-B
Tue 11:46:32 PM 33.9420 -118.4840 263° West 219 252 2,700 1,745 Climbing FlightAware ADS-B
Tue 11:47:02 PM 33.9390 -118.5200 264° West 252 290 3,600 2,291 Climbing FlightAware ADS-B
Tue 11:47:27 PM 33.9360 -118.5550 264° West 266 306 4,800 2,836 Climbing FlightAware ADS-B
Tue 11:47:57 PM 33.9330 -118.5960 265° West 274 315 6,200 2,727 Climbing FlightAware ADS-B
Tue 11:48:22 PM 33.9260 -118.6290 256° West 284 327 7,300 2,933 Climbing FlightAware ADS-B
Tue 11:48:42 PM 33.9020 -118.6550 222° Southwest 297 342 8,400 3,150 Climbing FlightAware ADS-B
Tue 11:49:02 PM 33.8770 -118.6610 191° South 300 345 9,400 3,200 Climbing FlightAware ADS-B
Tue 11:49:12 PM 33.8600 -118.6570 169° South 302 348 10,000 2,640 Climbing FlightAware ADS-B
Tue 11:49:27 PM 33.8470 -118.6480 150° Southeast 306 352 10,500 1,800 Climbing FlightAware ADS-B
Tue 11:49:42 PM 33.8310 -118.6290 135° Southeast 324 373 10,900 2,200 Climbing FlightAware ADS-B
Tue 11:49:57 PM 33.8250 -118.6100 111° Southeast 319 367 11,600 3,600 Climbing FlightAware ADS-B
Tue 11:50:07 PM 33.8220 -118.5860 99° East 314 361 12,400 2,880 Climbing FlightAware ADS-B
Tue 11:50:22 PM 33.8270 -118.5600 77° East 327 376 12,800 1,680 Climbing FlightAware ADS-B
Tue 11:50:32 PM 33.8380 -118.5410 55° Northeast 341 392 13,100 2,760 Climbing FlightAware ADS-B
Tue 11:51:12 PM 33.8900 -118.4820 43° Northeast 362 417 15,100 2,824 Climbing FlightAware ADS-B
Tue 11:51:57 PM 33.9410 -118.4180 46° Northeast 374 430 17,100 2,612 Climbing FlightAware ADS-B
Tue 11:52:37 PM 33.9810 -118.3480 55° Northeast 385 443 18,800 2,475 Climbing FlightAware ADS-B
Tue 11:53:17 PM 34.0200 -118.2780 56° Northeast 397 457 20,400 2,400 Climbing FlightAware ADS-B
Tue 11:54:02 PM 34.0710 -118.1880 56° Northeast 412 474 22,200 2,259 Climbing FlightAware ADS-B
Tue 11:54:42 PM 34.1140 -118.1120 56° Northeast 424 488 23,600 1,950 Climbing FlightAware ADS-B
Tue 11:55:22 PM 34.1530 -118.0440 55° Northeast 434 499 24,800 2,000 Climbing FlightAware ADS-B
Tue 11:56:00 PM 34.2200 -117.9380 53° Northeast 455 524 26,200 1,902 Climbing FlightAware ADS-B
Tue 11:56:44 PM 34.2810 -117.8500 50° Northeast 469 540 27,400 1,650 Climbing FlightAware ADS-B
Tue 11:57:20 PM 34.3320 -117.7770 50° Northeast 478 550 28,400 1,571 Climbing FlightAware ADS-B
Tue 11:58:08 PM 34.4010 -117.6780 50° Northeast 489 563 29,600 1,500 Climbing FlightAware ADS-B
Tue 11:58:48 PM 34.4590 -117.5940 50° Northeast 497 572 30,600 1,765 Climbing FlightAware ADS-B
Tue 11:59:33 PM 34.5240 -117.4990 50° Northeast 493 567 32,100 2,143 Climbing FlightAware ADS-B
Wed 12:00:12 AM 34.5810 -117.4170 50° Northeast 483 556 33,600 1,880 Climbing FlightAware ADS-B
Wed 12:00:56 AM 34.6440 -117.3240 51° Northeast 485 558 34,700 1,395 Climbing FlightAware ADS-B
Wed 12:01:38 AM 34.7030 -117.2380 50° Northeast 487 560 35,600 1,286 Climbing FlightAware ADS-B
Wed 12:02:20 AM 34.7640 -117.1490 50° Northeast 488 562 36,500 1,000 Climbing FlightAware ADS-B
Wed 12:03:02 AM 34.8240 -117.0600 51° Northeast 492 566 37,000 357 Climbing FlightAware ADS-B
Wed 12:03:44 AM 34.8860 -116.9690 50° Northeast 492 566 37,000 385 Level FlightAware ADS-B
Wed 12:04:20 AM 34.9390 -116.8900 51° Northeast 497 572 37,500 1,154 Climbing FlightAware ADS-B
Wed 12:05:02 AM 34.9960 -116.8060 50° Northeast 489 563 38,500 1,111 Climbing FlightAware ADS-B
Wed 12:05:41 AM 35.0550 -116.7180 51° Northeast 484 557 39,000 390 Climbing FlightAware ADS-B
Wed 12:06:19 AM 35.1080 -116.6390 51° Northeast 484 557 39,000  Level FlightAware ADS-B
Wed 12:07:03 AM 35.1600 -116.5630 50° Northeast 484 557 39,000  Level FlightAware ADS-B
Wed 12:07:49 AM 35.2370 -116.4470 51° Northeast 483 556 39,000  Level FlightAware ADS-B
Wed 12:08:24 AM 35.2820 -116.3790 51° Northeast 481 554 39,000  Level FlightAware ADS-B
Wed 12:09:13 AM 35.3530 -116.2730 51° Northeast 479 551 39,000  Level FlightAware ADS-B
Wed 12:10:10 AM 35.4330 -116.1520 51° Northeast 477 549 39,000  Level FlightAware ADS-B
Wed 12:10:51 AM 35.4910 -116.0640 51° Northeast 478 550 39,000  Level FlightAware ADS-B
Wed 12:11:31 AM 35.5350 -115.9730 59° Northeast 473 544 39,000  Level FlightAware ADS-B
Wed 12:12:17 AM 35.5780 -115.8660 64° Northeast 473 544 39,000  Level FlightAware ADS-B
Wed 12:12:56 AM 35.6170 -115.7660 64° Northeast 471 542 39,000  Level FlightAware ADS-B
Wed 12:13:35 AM 35.6530 -115.6760 64° Northeast 470 541 39,000  Level FlightAware ADS-B
Wed 12:14:14 AM 35.6900 -115.5810 64° Northeast 470 541 39,000  Level FlightAware ADS-B
Wed 12:14:59 AM 35.7310 -115.4770 64° Northeast 470 541 39,000  Level FlightAware ADS-B
Wed 12:15:31 AM 35.7610 -115.3990 65° Northeast 469 540 39,000  Level FlightAware ADS-B
Wed 12:16:14 AM 35.8020 -115.2940 64° Northeast 469 540 39,000  Level FlightAware ADS-B
Wed 12:16:55 AM 35.8400 -115.1950 65° Northeast 469 540 39,000  Level FlightAware ADS-B
Wed 12:17:38 AM 35.8810 -115.0920 64° Northeast 469 540 39,000  Level FlightAware ADS-B
Wed 12:18:19 AM 35.9190 -114.9910 65° Northeast 470 541 39,000  Level FlightAware ADS-B
Wed 12:19:02 AM 35.9570 -114.8930 64° Northeast 471 542 39,000  Level FlightAware ADS-B
Wed 12:19:41 AM 35.9950 -114.7940 65° Northeast 471 542 39,000  Level FlightAware ADS-B
Wed 12:20:19 AM 36.0310 -114.7010 64° Northeast 472 543 39,000  Level FlightAware ADS-B
Wed 12:21:00 AM 36.0680 -114.6020 65° Northeast 472 543 39,000  Level FlightAware ADS-B
Wed 12:21:44 AM 36.1090 -114.4940 65° Northeast 472 543 39,000  Level FlightAware ADS-B
Wed 12:22:33 AM 36.1550 -114.3740 65° Northeast 472 543 39,000  Level FlightAware ADS-B
Wed 12:23:11 AM 36.1890 -114.2830 65° Northeast 471 542 39,000  Level FlightAware ADS-B
Wed 12:23:57 AM 36.2330 -114.1670 65° Northeast 472 543 39,000  Level FlightAware ADS-B
Wed 12:24:37 AM 36.2700 -114.0680 65° Northeast 474 545 39,000  Level FlightAware ADS-B
Wed 12:25:21 AM 36.3110 -113.9600 65° Northeast 474 545 39,000  Level FlightAware ADS-B
Wed 12:26:01 AM 36.3470 -113.8620 65° Northeast 474 545 39,000  Level FlightAware ADS-B
Wed 12:26:45 AM 36.3880 -113.7530 65° Northeast 474 545 39,000  Level FlightAware ADS-B
Wed 12:27:22 AM 36.4200 -113.6640 66° East 474 545 39,000  Level FlightAware ADS-B
Wed 12:28:01 AM 36.4570 -113.5660 65° Northeast 475 547 39,000  Level FlightAware ADS-B
Wed 12:28:42 AM 36.4940 -113.4640 66° East 475 547 39,000  Level FlightAware ADS-B
Wed 12:29:20 AM 36.5300 -113.3680 65° Northeast 476 548 39,000  Level FlightAware ADS-B
Wed 12:30:06 AM 36.5710 -113.2550 66° East 477 549 39,000  Level FlightAware ADS-B
Wed 12:30:51 AM 36.6120 -113.1420 66° East 479 551 39,000  Level FlightAware ADS-B
Wed 12:31:31 AM 36.6490 -113.0410 65° Northeast 479 551 39,000  Level FlightAware ADS-B
Wed 12:32:11 AM 36.6850 -112.9410 66° East 478 550 39,000  Level FlightAware ADS-B
Wed 12:32:47 AM 36.7160 -112.8540 66° East 478 550 39,000  Level FlightAware ADS-B
Wed 12:33:31 AM 36.7550 -112.7440 66° East 477 549 39,000  Level FlightAware ADS-B
Wed 12:34:11 AM 36.7910 -112.6450 66° East 476 548 39,000  Level FlightAware ADS-B
Wed 12:34:46 AM 36.8230 -112.5550 66° East 476 548 39,000  Level FlightAware ADS-B
Wed 12:35:28 AM 36.8610 -112.4480 66° East 476 548 39,000  Level FlightAware ADS-B
Wed 12:36:13 AM 36.9020 -112.3330 66° East 475 547 39,000  Level FlightAware ADS-B
Wed 12:36:53 AM 36.9370 -112.2340 66° East 475 547 39,000  Level FlightAware ADS-B
Wed 12:37:33 AM 36.9730 -112.1330 66° East 473 544 39,000  Level FlightAware ADS-B
Wed 12:38:17 AM 37.0120 -112.0220 66° East 473 544 39,000  Level FlightAware ADS-B
Wed 12:39:01 AM 37.0490 -111.9140 67° East 473 544 39,000  Level FlightAware ADS-B
Wed 12:39:33 AM 37.0790 -111.8310 66° East 473 544 39,000  Level FlightAware ADS-B
Wed 12:40:16 AM 37.1160 -111.7240 67° East 474 545 39,000  Level FlightAware ADS-B
Wed 12:40:56 AM 37.1510 -111.6230 66° East 474 545 39,000  Level FlightAware ADS-B
Wed 12:41:34 AM 37.1840 -111.5270 67° East 476 548 39,000  Level FlightAware ADS-B
Wed 12:42:16 AM 37.2200 -111.4210 67° East 477 549 39,000  Level FlightAware ADS-B
Wed 12:42:58 AM 37.2560 -111.3150 67° East 478 550 39,000  Level FlightAware ADS-B
Wed 12:43:38 AM 37.2920 -111.2110 66° East 478 550 39,000  Level FlightAware ADS-B
Wed 12:44:22 AM 37.3300 -111.1010 66° East 477 549 39,000  Level FlightAware ADS-B
Wed 12:45:01 AM 37.3640 -111.0010 67° East 476 548 39,000  Level FlightAware ADS-B
Wed 12:45:45 AM 37.4020 -110.8890 67° East 478 550 39,000  Level FlightAware ADS-B
Wed 12:46:21 AM 37.4330 -110.7970 67° East 477 549 39,000  Level FlightAware ADS-B
Wed 12:47:01 AM 37.4670 -110.6950 67° East 475 547 39,000  Level FlightAware ADS-B
Wed 12:47:45 AM 37.5040 -110.5830 67° East 477 549 39,000  Level FlightAware ADS-B
Wed 12:48:22 AM 37.5360 -110.4890 67° East 477 549 39,000  Level FlightAware ADS-B
Wed 12:49:01 AM 37.5690 -110.3890 67° East 479 551 39,000  Level FlightAware ADS-B
Wed 12:49:39 AM 37.6020 -110.2890 67° East 481 554 39,000  Level FlightAware ADS-B
Wed 12:50:21 AM 37.6370 -110.1810 68° East 480 552 39,000  Level FlightAware ADS-B
Wed 12:51:05 AM 37.6810 -110.0710 63° Northeast 483 556 39,000  Level FlightAware ADS-B
Wed 12:51:49 AM 37.7250 -109.9610 63° Northeast 486 559 39,000  Level FlightAware ADS-B
Wed 12:52:29 AM 37.7660 -109.8600 63° Northeast 487 560 39,000  Level FlightAware ADS-B
Wed 12:53:11 AM 37.8090 -109.7520 63° Northeast 487 560 39,000  Level FlightAware ADS-B
Wed 12:53:50 AM 37.8470 -109.6550 64° Northeast 483 556 39,000  Level FlightAware ADS-B
Wed 12:54:30 AM 37.8870 -109.5540 63° Northeast 479 551 39,000  Level FlightAware ADS-B
Wed 12:55:09 AM 37.9260 -109.4550 63° Northeast 482 555 39,000  Level FlightAware ADS-B
Wed 12:55:46 AM 37.9630 -109.3620 63° Northeast 485 558 39,000  Level FlightAware ADS-B
Wed 12:56:31 AM 38.0080 -109.2470 64° Northeast 483 556 39,000  Level FlightAware ADS-B
Wed 12:57:12 AM 38.0480 -109.1450 64° Northeast 483 556 39,000  Level FlightAware ADS-B
Wed 12:57:48 AM 38.0830 -109.0560 63° Northeast 482 555 39,000  Level FlightAware ADS-B
Wed 12:58:28 AM 38.1230 -108.9530 64° Northeast 480 552 39,000  Level FlightAware ADS-B
Wed 12:59:11 AM 38.1650 -108.8430 64° Northeast 479 551 39,000  Level FlightAware ADS-B
Wed 12:59:45 AM 38.1980 -108.7570 64° Northeast 479 551 39,000  Level FlightAware ADS-B
Wed 01:00:28 AM 38.2400 -108.6500 63° Northeast 476 548 39,000  Level FlightAware ADS-B
Wed 01:01:09 AM 38.2800 -108.5440 64° Northeast 476 548 39,000  Level FlightAware ADS-B
Wed 01:01:53 AM 38.3220 -108.4350 64° Northeast 478 550 39,000  Level FlightAware ADS-B
Wed 01:02:33 AM 38.3610 -108.3320 64° Northeast 482 555 39,000  Level FlightAware ADS-B
Wed 01:03:13 AM 38.4000 -108.2310 64° Northeast 484 557 39,000  Level FlightAware ADS-B
Wed 01:03:57 AM 38.4430 -108.1180 64° Northeast 487 560 39,000  Level FlightAware ADS-B
Wed 01:04:33 AM 38.4780 -108.0240 65° Northeast 487 560 39,000 -158 Level FlightAware ADS-B
Wed 01:05:13 AM 38.5170 -107.9210 64° Northeast 486 559 38,800 -635 Descending FlightAware ADS-B
Wed 01:05:58 AM 38.5590 -107.8070 65° Northeast 483 556 38,100 -975 Descending FlightAware ADS-B
Wed 01:06:33 AM 38.5930 -107.7150 65° Northeast 482 555 37,500 -880 Descending FlightAware ADS-B
Wed 01:07:13 AM 38.6320 -107.6130 64° Northeast 480 552 37,000 -353 Descending FlightAware ADS-B
Wed 01:07:58 AM 38.6740 -107.4980 65° Northeast 479 551 37,000  Level FlightAware ADS-B
Wed 01:08:39 AM 38.7130 -107.3930 65° Northeast 479 551 37,000 -71 Level FlightAware ADS-B
Wed 01:09:22 AM 38.7540 -107.2820 65° Northeast 480 552 36,900 -571 Descending FlightAware ADS-B
Wed 01:10:03 AM 38.7920 -107.1790 65° Northeast 472 543 36,200 -951 Descending FlightAware ADS-B
Wed 01:10:44 AM 38.8280 -107.0780 65° Northeast 472 543 35,600 -991 Descending FlightAware ADS-B
Wed 01:15:30 AM 39.0860 -106.3630 65° Northeast 445 512 30,800 -1,012 Descending FlightAware ADS-B
Wed 01:16:16 AM 39.1250 -106.2540 65° Northeast 438 504 30,000 -1,326 Descending FlightAware ADS-B
Wed 01:16:56 AM 39.1580 -106.1590 66° East 431 496 28,900 -1,784 Descending FlightAware ADS-B
Wed 01:17:30 AM 39.1820 -106.0920 65° Northeast 433 498 27,800 -2,127 Descending FlightAware ADS-B
Wed 01:18:15 AM 39.2210 -105.9810 66° East 422 486 26,100 -2,133 Descending FlightAware ADS-B
Wed 01:19:00 AM 39.2570 -105.8790 65° Northeast 414 476 24,600 -2,000 Descending FlightAware ADS-B
Wed 01:19:39 AM 39.2870 -105.7920 66° East 405 466 23,300 -1,357 Descending FlightAware ADS-B
Wed 01:20:24 AM 39.3190 -105.7020 65° Northeast 394 453 22,700 -444 Descending FlightAware ADS-B
Wed 01:21:00 AM 39.3430 -105.6370 64° Northeast 394 453 22,700  Level FlightAware ADS-B
Wed 01:21:36 AM 39.3660 -105.5720 65° Northeast 394 453 22,700  Level FlightAware ADS-B
Wed 01:22:24 AM 39.3980 -105.4840 65° Northeast 394 453 22,700  Level FlightAware ADS-B
Wed 01:23:23 AM 39.4360 -105.3770 65° Northeast 394 453 22,700 -2,243 Level FlightAware ADS-B
Wed 01:27:45 AM 39.6310 -104.8960 62° Northeast 308 354 10,700 -2,583 Descending FlightAware ADS-B
Wed 01:28:25 AM 39.6620 -104.8310 58° Northeast 287 330 9,700 -896 Descending FlightAware ADS-B
Wed 01:28:52 AM 39.6780 -104.7970 59° Northeast 287 330 9,700  Level FlightAware ADS-B
Wed 01:29:17 AM 39.6930 -104.7660 58° Northeast 287 330 9,700  Level FlightAware ADS-B
Wed 01:29:41 AM 39.7070 -104.7360 59° Northeast 287 330 9,700 -2,553 Level FlightAware ADS-B
Wed 01:30:04 AM 39.7190 -104.7070 62° Northeast 203 234 7,700 -3,568 Descending FlightAware ADS-B
Wed 01:30:18 AM 39.7260 -104.6940 55° Northeast 200 230 7,500 -293 Descending FlightAware ADS-B
Wed 01:30:45 AM 39.7370 -104.6700 59° Northeast 200 230 7,500 -769 Level FlightAware ADS-B
Wed 01:31:36 AM 39.7675 -104.6447 59° Northeast 168 193 6,500 -1,018 Descending Denver Center
Wed 01:32:37 AM 39.8164 -104.6428 North 178 205 5,600 -595 Descending Denver Center
Wed 01:33:37 AM 39.8514 -104.6411 North 144 166 5,300 -300 Descending Denver Center
Wed 01:35:00 AM 39.8500 -104.6667 North  Level FlightAware Approximate
Wed 01:42:00 AM 39.8617 -104.6732 North  Level Estimated
Wed 01:43:00 AM 39.8617 -104.6732 North  Level Estimated

Login

Don't have an account? Register now (free) for customized features, flight alerts, and more!